Time;durP1;ratioP1;P1;durP2;ratioP2;P2;SDS_P1;SDS_P2;PMS_P1;PMS_P2;Temp;Humidity;BMP_temperature;BMP_pressure;BME280_temperature;BME280_humidity;BME280_pressure;Samples;Min_cycle;Max_cycle;Signal;HPM_P1;HPM_P2
2021/01/10 00:03:31;;;;;;;106.97;48.73;;;;;;;0.14;84.56;99577.56;4413313;79;21594;-91
2021/01/10 00:09:33;;;;;;;115.52;49.88;;;;;;;0.15;84.60;99570.27;4408817;79;21206;-92
2021/01/10 00:15:35;;;;;;;114.37;50.60;;;;;;;0.15;84.60;99570.27;4411873;79;21164;-91
2021/01/10 00:21:37;;;;;;;110.78;48.38;;;;;;;0.07;84.69;99581.16;4407235;79;21169;-91
2021/01/10 00:27:41;;;;;;;121.22;53.95;;;;;;;-0.12;84.91;99574.97;4404514;79;21148;-93
2021/01/10 00:33:43;;;;;;;116.50;51.92;;;;;;;0.01;84.73;99598.48;4408394;79;21162;-91
2021/01/10 00:39:45;;;;;;;129.45;56.30;;;;;;;0.01;84.73;99598.48;4407385;79;21189;-91
2021/01/10 00:45:47;;;;;;;133.18;57.03;;;;;;;-0.15;84.85;99600.59;4404494;79;21330;-92
2021/01/10 00:51:50;;;;;;;136.15;56.95;;;;;;;-0.15;84.98;99607.31;4412868;79;21219;-92
2021/01/10 00:57:52;;;;;;;130.25;58.30;;;;;;;-0.21;85.08;99610.36;4404016;79;21221;-91
2021/01/10 01:03:55;;;;;;;128.18;54.53;;;;;;;-0.19;85.09;99610.31;4386224;79;21484;-90
2021/01/10 01:09:57;;;;;;;140.18;57.93;;;;;;;-0.14;84.78;99611.59;4378238;79;21672;-92
2021/01/10 01:15:59;;;;;;;127.85;52.62;;;;;;;-0.05;85.00;99618.48;4377134;79;21624;-93
2021/01/10 01:22:00;;;;;;;114.62;50.03;;;;;;;-0.05;84.83;99617.14;4390506;79;21179;-91
2021/01/10 01:28:03;;;;;;;120.97;52.50;;;;;;;-0.15;84.95;99616.73;4381400;79;21167;-92
2021/01/10 01:34:05;;;;;;;121.33;51.50;;;;;;;-0.25;85.09;99622.23;4390953;80;21801;-92
2021/01/10 01:40:08;;;;;;;126.70;50.77;;;;;;;-0.16;85.31;99615.11;4382872;79;21191;-92
2021/01/10 01:46:36;;;;;;;119.05;52.33;;;;;;;-0.23;85.12;99616.03;4384785;80;21151;-91
2021/01/10 01:52:40;;;;;;;114.77;48.60;;;;;;;-0.14;85.21;99620.20;4388467;79;21150;-91
2021/01/10 01:59:04;;;;;;;124.87;51.90;;;;;;;-0.08;84.91;99620.41;4386687;79;21178;-91
2021/01/10 02:05:10;;;;;;;122.53;50.80;;;;;;;-0.21;84.83;99618.43;4420379;79;21134;-91
2021/01/10 02:11:13;;;;;;;129.32;52.50;;;;;;;-0.19;85.25;99621.08;4428591;79;21628;-92
2021/01/10 02:17:17;;;;;;;136.63;56.50;;;;;;;-0.13;85.26;99619.94;4421044;79;21154;-91
2021/01/10 02:23:31;;;;;;;123.27;51.33;;;;;;;-0.15;85.02;99617.27;4420907;79;21141;-90
2021/01/10 02:29:39;;;;;;;119.28;49.75;;;;;;;-0.09;85.11;99619.60;4415217;79;21206;-92
2021/01/10 02:35:46;;;;;;;109.57;45.20;;;;;;;-0.18;85.21;99618.66;4422845;79;21165;-91
2021/01/10 02:42:22;;;;;;;98.60;43.20;;;;;;;-0.22;85.02;99618.19;4424078;79;21183;-91
2021/01/10 02:48:24;;;;;;;114.10;45.33;;;;;;;-0.24;85.13;99624.39;4417341;79;21158;-92
2021/01/10 02:54:26;;;;;;;120.00;49.43;;;;;;;-0.19;85.23;99615.69;4422065;79;21210;-91
2021/01/10 03:00:30;;;;;;;133.07;55.10;;;;;;;-0.24;85.05;99617.12;4431874;79;21184;-91
2021/01/10 03:06:32;;;;;;;143.05;55.95;;;;;;;-0.27;84.93;99620.94;4431358;79;21634;-91
2021/01/10 03:12:35;;;;;;;148.70;61.23;;;;;;;-0.29;84.90;99617.72;4435759;79;21583;-92
2021/01/10 03:18:37;;;;;;;101.20;42.67;;;;;;;-0.25;84.81;99615.51;4443275;79;21567;-91
2021/01/10 03:24:38;;;;;;;105.67;43.40;;;;;;;-0.20;85.14;99607.38;4435412;79;21126;-92
2021/01/10 03:30:40;;;;;;;102.50;42.43;;;;;;;-0.15;85.15;99610.00;4424092;79;21581;-92
2021/01/10 03:36:42;;;;;;;92.65;39.50;;;;;;;-0.18;85.23;99607.89;4427995;79;21156;-92
2021/01/10 03:42:44;;;;;;;104.77;41.43;;;;;;;-0.18;85.17;99607.08;4439311;79;21171;-92
2021/01/10 03:48:45;;;;;;;95.53;40.57;;;;;;;-0.21;85.26;99610.36;4437298;79;21166;-92
2021/01/10 03:54:46;;;;;;;95.30;41.70;;;;;;;-0.26;85.17;99613.11;4436250;79;21153;-92
2021/01/10 04:00:48;;;;;;;103.90;45.57;;;;;;;-0.22;85.35;99612.80;4439642;79;21588;-92
2021/01/10 04:06:50;;;;;;;110.90;44.77;;;;;;;-0.17;85.25;99611.36;4428470;79;21124;-93
2021/01/10 04:12:51;;;;;;;106.57;46.23;;;;;;;-0.21;85.16;99612.52;4429557;78;21560;-92
2021/01/10 04:18:53;;;;;;;115.43;48.17;;;;;;;-0.21;85.31;99617.08;4441190;79;21178;-92
2021/01/10 04:24:54;;;;;;;107.58;42.55;;;;;;;-0.16;85.43;99619.14;4432431;79;21377;-92
2021/01/10 04:30:56;;;;;;;115.97;44.17;;;;;;;-0.19;84.72;99622.42;4433784;79;21127;-92
2021/01/10 04:36:57;;;;;;;101.10;40.57;;;;;;;-0.27;84.68;99627.66;4436537;79;21620;-91
2021/01/10 04:42:59;;;;;;;104.77;40.73;;;;;;;-0.30;84.54;99625.55;4427718;79;21139;-91
2021/01/10 04:49:01;;;;;;;99.03;40.10;;;;;;;-0.33;84.77;99628.25;4436327;78;21150;-92
2021/01/10 04:55:05;;;;;;;89.53;36.57;;;;;;;-0.25;84.97;99626.84;4448037;78;21119;-91
2021/01/10 05:01:12;;;;;;;69.57;28.83;;;;;;;-0.24;84.83;99623.86;4417909;79;21608;-91
2021/01/10 05:07:14;;;;;;;82.27;33.40;;;;;;;-0.27;84.52;99628.44;4405880;79;21167;-93
2021/01/10 05:13:16;;;;;;;75.77;31.97;;;;;;;-0.25;84.65;99633.00;4410151;80;21417;-90
2021/01/10 05:19:21;;;;;;;69.60;29.53;;;;;;;-0.27;84.78;99647.84;4418572;79;21146;-91
2021/01/10 05:25:23;;;;;;;83.78;35.25;;;;;;;-0.29;84.40;99641.94;4411922;79;21866;-92
2021/01/10 05:31:45;;;;;;;78.47;33.63;;;;;;;-0.35;84.18;99640.41;4408927;79;21158;-92
2021/01/10 05:37:58;;;;;;;74.77;31.00;;;;;;;-0.37;84.30;99639.88;4408465;79;21172;-92
2021/01/10 05:44:03;;;;;;;78.63;31.13;;;;;;;-0.39;84.31;99643.39;4397697;79;21114;-92
2021/01/10 05:50:15;;;;;;;74.63;32.13;;;;;;;-0.45;84.63;99638.63;4414728;80;21303;-90
2021/01/10 05:56:18;;;;;;;70.57;30.17;;;;;;;-0.56;84.44;99638.50;4412576;79;21157;-91
2021/01/10 06:02:32;;;;;;;78.90;33.60;;;;;;;-0.79;84.18;99643.33;4434314;79;21157;-91
2021/01/10 06:08:39;;;;;;;77.07;33.67;;;;;;;-1.00;84.17;99633.86;4465046;79;21099;-92
2021/01/10 06:14:40;;;;;;;87.27;35.00;;;;;;;-1.08;84.16;99638.50;4468590;78;21177;-92
2021/01/10 06:20:42;;;;;;;94.30;37.40;;;;;;;-1.28;84.13;99639.26;4454303;79;21154;-91
2021/01/10 06:26:49;;;;;;;87.50;36.40;;;;;;;-1.52;84.15;99642.40;4463503;79;21591;-92
2021/01/10 06:32:54;;;;;;;84.17;36.03;;;;;;;-1.70;84.48;99643.87;4457462;79;21125;-91
2021/01/10 06:39:11;;;;;;;84.97;34.27;;;;;;;-1.67;84.33;99652.70;4466518;78;21166;-90
2021/01/10 06:45:14;;;;;;;75.60;31.53;;;;;;;-1.98;83.70;99655.32;4463280;79;21181;-90
2021/01/10 06:51:16;;;;;;;79.90;32.63;;;;;;;-2.19;84.22;99673.40;4452327;79;21608;-90
2021/01/10 06:57:18;;;;;;;81.73;33.13;;;;;;;-2.28;84.23;99681.77;4456665;78;21163;-91
2021/01/10 07:03:21;;;;;;;74.50;29.57;;;;;;;-2.27;85.03;99698.66;4427562;79;21118;-92
2021/01/10 07:09:23;;;;;;;86.13;35.97;;;;;;;-2.20;84.76;99701.31;4407086;79;21187;-91
2021/01/10 07:15:25;;;;;;;72.37;31.13;;;;;;;-2.42;84.94;99696.02;4410685;79;21671;-90
2021/01/10 07:21:44;;;;;;;76.30;34.40;;;;;;;-2.41;84.70;99702.45;4414965;79;21113;-90
2021/01/10 07:27:46;;;;;;;84.93;34.60;;;;;;;-2.41;84.96;99703.78;4405789;79;21159;-91
2021/01/10 07:33:50;;;;;;;68.57;30.67;;;;;;;-2.27;85.15;99723.58;4291425;82;21637;-89
2021/01/10 07:39:59;;;;;;;94.60;41.17;;;;;;;-2.20;85.25;99728.13;4405417;79;21163;-90
2021/01/10 07:46:13;;;;;;;71.90;29.90;;;;;;;-1.94;85.87;99726.94;4299709;81;21191;-90
2021/01/10 07:52:14;;;;;;;86.57;39.27;;;;;;;-1.54;86.38;99728.60;4251645;81;21767;-90
2021/01/10 07:58:17;;;;;;;94.67;43.10;;;;;;;-1.25;85.25;99731.37;4270958;81;21712;-90
2021/01/10 08:04:33;;;;;;;72.40;33.43;;;;;;;-1.07;86.28;99723.42;4301285;81;21451;-89
2021/01/10 08:10:51;;;;;;;67.67;31.87;;;;;;;-0.49;85.98;99726.91;4289244;81;21667;-91
2021/01/10 08:16:52;;;;;;;75.97;32.77;;;;;;;-0.18;85.10;99722.80;4298899;81;21171;-90
2021/01/10 08:22:54;;;;;;;63.50;30.73;;;;;;;0.06;85.51;99731.66;4299607;81;21169;-90
2021/01/10 08:29:03;;;;;;;55.73;25.23;;;;;;;0.34;85.99;99729.41;4295284;81;21166;-91
2021/01/10 08:35:06;;;;;;;55.55;27.52;;;;;;;1.24;85.58;99746.05;4300044;81;21211;-91
2021/01/10 08:41:07;;;;;;;55.85;25.80;;;;;;;1.24;85.58;99746.05;4301866;81;21209;-90
2021/01/10 08:47:11;;;;;;;67.22;31.40;;;;;;;1.73;84.62;99744.91;4292996;81;21308;-90
2021/01/10 08:54:15;;;;;;;67.60;30.10;;;;;;;2.14;83.88;99752.47;4259584;81;21743;-90
2021/01/10 09:00:17;;;;;;;72.58;32.10;;;;;;;2.56;83.20;99758.05;4279429;81;21205;-91
2021/01/10 09:06:19;;;;;;;74.67;33.63;;;;;;;3.01;83.07;99755.10;4406881;79;21168;-92
2021/01/10 09:12:50;;;;;;;66.47;34.75;;;;;;;3.56;82.59;99756.97;4418266;80;21276;-91
2021/01/10 09:18:54;;;;;;;71.35;33.60;;;;;;;4.05;82.25;99753.21;4404811;79;21902;-92
2021/01/10 09:24:56;;;;;;;70.72;33.08;;;;;;;4.41;81.47;99757.86;4410664;79;21167;-92
2021/01/10 09:30:58;;;;;;;69.70;33.70;;;;;;;4.79;80.93;99756.17;4413170;79;21187;-92
2021/01/10 09:37:08;;;;;;;67.12;33.78;;;;;;;5.23;78.15;99745.53;4401371;80;21122;-92
2021/01/10 09:43:10;;;;;;;60.55;31.75;;;;;;;5.38;80.02;99746.38;4409090;80;21138;-92
2021/01/10 09:49:22;;;;;;;61.83;32.88;;;;;;;5.88;79.70;99745.48;4404330;79;21175;-92
2021/01/10 09:55:27;;;;;;;69.37;34.03;;;;;;;6.29;79.20;99745.61;4408861;79;21170;-92
2021/01/10 10:01:38;;;;;;;73.78;38.53;;;;;;;6.59;79.23;99746.38;4418511;79;21617;-91
2021/01/10 10:07:50;;;;;;;65.85;34.80;;;;;;;6.98;78.45;99745.12;4441324;79;21147;-92
2021/01/10 10:13:58;;;;;;;81.55;41.15;;;;;;;6.92;76.15;99743.15;4434095;79;21184;-92
2021/01/10 10:20:00;;;;;;;64.67;34.40;;;;;;;6.36;74.77;99739.08;4439504;79;21150;-92
2021/01/10 10:26:02;;;;;;;71.25;38.33;;;;;;;6.26;75.04;99734.00;4434724;79;21137;-92
2021/01/10 10:32:05;;;;;;;63.85;34.08;;;;;;;6.47;74.96;99730.55;4433137;79;21167;-92
2021/01/10 10:38:06;;;;;;;48.05;24.70;;;;;;;6.85;75.57;99721.68;4439340;79;21145;-92
2021/01/10 10:44:07;;;;;;;60.88;31.00;;;;;;;7.06;74.56;99709.67;4436554;79;21174;-92
2021/01/10 10:50:10;;;;;;;60.45;32.67;;;;;;;7.20;73.62;99706.09;4441908;78;21133;-93
2021/01/10 10:56:11;;;;;;;48.60;23.70;;;;;;;6.80;73.18;99698.75;4437421;79;21146;-93
2021/01/10 11:02:13;;;;;;;44.30;24.67;;;;;;;6.08;73.11;99691.73;4428251;79;21145;-93
2021/01/10 11:08:15;;;;;;;43.55;22.42;;;;;;;6.15;72.53;99694.72;4428111;79;21170;-92
2021/01/10 11:14:18;;;;;;;49.75;26.10;;;;;;;5.82;72.27;99690.27;4431788;79;22356;-92
2021/01/10 11:20:20;;;;;;;45.30;25.15;;;;;;;5.53;71.94;99682.84;4427069;79;21210;-92
2021/01/10 11:26:25;;;;;;;49.38;26.10;;;;;;;5.45;71.84;99674.74;4438713;79;21144;-91
2021/01/10 11:32:27;;;;;;;56.37;28.83;;;;;;;4.93;70.95;99678.13;4431381;79;21157;-91
2021/01/10 11:38:28;;;;;;;48.92;24.95;;;;;;;4.45;71.09;99673.41;4439809;79;21601;-92
2021/01/10 11:44:30;;;;;;;41.92;22.32;;;;;;;4.27;71.07;99680.76;4433335;79;21553;-92
2021/01/10 11:50:31;;;;;;;41.42;21.37;;;;;;;4.06;70.60;99677.03;4299688;81;21177;-92
2021/01/10 11:56:33;;;;;;;24.72;13.58;;;;;;;3.87;70.21;99679.79;4430211;78;21171;-92
2021/01/10 12:02:35;;;;;;;33.75;16.42;;;;;;;3.76;68.97;99673.84;4424841;79;21133;-92
2021/01/10 12:08:36;;;;;;;22.93;12.10;;;;;;;3.45;69.16;99670.38;4406480;79;21772;-92
2021/01/10 12:14:38;;;;;;;10.88;5.95;;;;;;;3.43;66.58;99673.94;4420225;79;21150;-92
2021/01/10 12:20:40;;;;;;;9.98;5.22;;;;;;;3.33;67.81;99671.52;4412336;79;21177;-92
2021/01/10 12:26:41;;;;;;;13.68;7.17;;;;;;;3.20;65.75;99666.98;4424304;79;21150;-92
2021/01/10 12:32:43;;;;;;;23.35;11.80;;;;;;;2.95;66.52;99668.98;4398426;79;21822;-92
2021/01/10 12:38:44;;;;;;;24.90;13.15;;;;;;;3.14;67.66;99660.11;4407246;80;21175;-92
2021/01/10 12:44:46;;;;;;;12.45;7.08;;;;;;;3.43;68.18;99659.05;4414054;80;21203;-92
2021/01/10 12:50:47;;;;;;;15.48;8.68;;;;;;;3.67;66.57;99657.31;4405436;80;21118;-94
2021/01/10 12:56:49;;;;;;;21.73;12.03;;;;;;;3.56;66.29;99648.69;4411723;80;21124;-90
2021/01/10 13:02:51;;;;;;;23.35;9.90;;;;;;;3.49;66.22;99651.06;4423193;78;21303;-85
2021/01/10 13:08:52;;;;;;;30.70;15.95;;;;;;;3.44;66.01;99662.02;4427692;78;21153;-84
2021/01/10 13:14:53;;;;;;;21.07;11.45;;;;;;;3.23;65.75;99657.47;4428658;79;21146;-85
2021/01/10 13:20:55;;;;;;;24.45;12.23;;;;;;;3.12;65.65;99658.27;4425631;79;21157;-84
2021/01/10 13:26:56;;;;;;;18.50;9.93;;;;;;;2.86;65.30;99667.59;4430437;78;21173;-86
2021/01/10 13:32:58;;;;;;;22.82;12.75;;;;;;;2.52;64.63;99657.07;4434314;79;21163;-85
2021/01/10 13:39:00;;;;;;;20.92;10.60;;;;;;;2.28;64.39;99662.75;4423217;79;21174;-85
2021/01/10 13:45:01;;;;;;;20.52;10.08;;;;;;;2.07;64.69;99665.63;4430903;79;21642;-84
2021/01/10 13:51:03;;;;;;;22.40;12.30;;;;;;;1.98;64.92;99661.25;4428281;79;21259;-84
2021/01/10 13:57:05;;;;;;;21.60;10.20;;;;;;;1.92;65.07;99669.21;4435946;79;21238;-85
2021/01/10 14:03:06;;;;;;;17.50;9.08;;;;;;;1.79;64.94;99672.17;4436513;79;21280;-84
2021/01/10 14:09:08;;;;;;;16.60;8.48;;;;;;;1.62;64.93;99669.28;4431475;79;21595;-85
2021/01/10 14:15:10;;;;;;;12.78;7.22;;;;;;;1.64;65.06;99663.81;4432108;79;21171;-84
2021/01/10 14:21:36;;;;;;;16.52;8.10;;;;;;;1.52;64.93;99672.97;4436283;79;21115;-84
2021/01/10 14:27:39;;;;;;;16.30;9.08;;;;;;;1.39;64.92;99667.00;4438383;79;21610;-85
2021/01/10 14:33:40;;;;;;;20.82;9.50;;;;;;;1.36;64.53;99668.17;4428798;79;21606;-85
2021/01/10 14:39:42;;;;;;;20.68;10.88;;;;;;;1.02;64.51;99671.73;4432287;79;21143;-84
2021/01/10 14:45:43;;;;;;;28.38;11.83;;;;;;;1.02;64.51;99671.73;4437147;79;21175;-85
2021/01/10 14:51:48;;;;;;;38.75;15.38;;;;;;;0.88;65.14;99668.20;4437132;79;21141;-84
2021/01/10 14:57:49;;;;;;;42.48;17.07;;;;;;;0.72;65.32;99670.34;4431305;79;21234;-84
2021/01/10 15:03:58;;;;;;;38.38;16.02;;;;;;;0.12;65.66;99666.42;4402793;79;21403;-84
2021/01/10 15:10:01;;;;;;;30.00;13.30;;;;;;;0.12;65.66;99666.42;4341754;80;21194;-85
2021/01/10 15:16:03;;;;;;;41.23;19.02;;;;;;;-0.26;66.24;99674.45;4335576;80;21162;-85
2021/01/10 15:22:05;;;;;;;42.20;19.47;;;;;;;-0.48;66.60;99675.52;4336976;80;21914;-85
2021/01/10 15:28:07;;;;;;;63.70;27.13;;;;;;;-0.66;67.05;99685.66;4337739;80;21115;-85
2021/01/10 15:34:08;;;;;;;45.33;20.17;;;;;;;-0.81;67.21;99680.44;4335718;80;21141;-85
2021/01/10 15:40:13;;;;;;;48.70;21.17;;;;;;;-1.01;67.91;99684.67;4331182;81;21169;-84
2021/01/10 15:46:17;;;;;;;69.40;27.47;;;;;;;-1.16;68.14;99684.79;4332184;81;21171;-84
2021/01/10 15:52:19;;;;;;;72.17;28.93;;;;;;;-1.25;68.16;99685.70;4346060;81;21626;-84
2021/01/10 15:58:21;;;;;;;59.17;27.47;;;;;;;-1.36;68.47;99683.61;4335944;81;21648;-84
2021/01/10 16:04:22;;;;;;;60.27;27.20;;;;;;;-1.38;68.79;99678.27;4367922;79;21902;-83
2021/01/10 16:10:24;;;;;;;64.03;30.90;;;;;;;-1.49;69.01;99678.09;4407084;80;21173;-84
2021/01/10 16:16:26;;;;;;;75.60;32.57;;;;;;;-1.60;69.24;99685.42;4434859;79;21596;-83
2021/01/10 16:22:29;;;;;;;76.80;34.50;;;;;;;-1.68;69.49;99685.45;4412554;79;21161;-83
2021/01/10 16:28:30;;;;;;;76.37;33.63;;;;;;;-1.71;69.48;99686.00;4433963;80;21138;-84
2021/01/10 16:34:32;;;;;;;86.57;34.17;;;;;;;-1.67;69.72;99686.25;4416102;79;21152;-84
2021/01/10 16:40:35;;;;;;;90.27;36.07;;;;;;;-1.61;69.83;99677.08;4406653;79;21569;-84
2021/01/10 16:46:36;;;;;;;73.20;33.20;;;;;;;-1.63;70.01;99682.73;4385028;79;21918;-84
2021/01/10 16:52:48;;;;;;;69.77;30.23;;;;;;;-1.72;70.35;99688.44;4349729;80;21159;-84
2021/01/10 16:58:50;;;;;;;71.67;32.70;;;;;;;-1.85;71.06;99687.70;4427648;79;21651;-84
2021/01/10 17:04:51;;;;;;;71.30;32.97;;;;;;;-1.93;71.57;99694.20;4417071;79;21171;-83
2021/01/10 17:10:53;;;;;;;105.03;41.03;;;;;;;-2.05;70.98;99699.11;4409623;79;21164;-83
2021/01/10 17:16:54;;;;;;;73.63;31.23;;;;;;;-2.30;71.66;99704.58;4403593;79;21118;-84
2021/01/10 17:22:55;;;;;;;95.67;38.27;;;;;;;-2.45;71.81;99702.74;4417739;80;21698;-84
2021/01/10 17:28:58;;;;;;;108.33;43.17;;;;;;;-2.42;72.26;99699.52;4427296;80;21296;-84
2021/01/10 17:35:00;;;;;;;128.73;44.10;;;;;;;-2.36;72.36;99705.64;4430725;80;21158;-84
2021/01/10 17:41:01;;;;;;;99.97;42.47;;;;;;;-2.47;71.89;99704.88;4429857;80;21453;-84
2021/01/10 17:47:03;;;;;;;129.00;47.47;;;;;;;-2.76;72.22;99711.94;4390611;80;21116;-84
2021/01/10 17:53:04;;;;;;;125.10;46.67;;;;;;;-2.90;72.53;99709.55;4402883;80;21147;-84
2021/01/10 17:59:06;;;;;;;98.67;42.10;;;;;;;-2.95;72.69;99712.75;4422244;80;21394;-83
2021/01/10 18:05:09;;;;;;;96.50;42.33;;;;;;;-3.02;73.34;99717.03;4429986;79;21169;-83
2021/01/10 18:11:22;;;;;;;110.00;47.57;;;;;;;-3.22;72.89;99715.19;4501314;79;21146;-83
2021/01/10 18:17:23;;;;;;;124.77;50.33;;;;;;;-3.30;73.39;99725.09;4482670;79;21167;-83
2021/01/10 18:23:25;;;;;;;87.37;38.83;;;;;;;-3.17;73.73;99722.94;4438684;79;21146;-84
2021/01/10 18:29:27;;;;;;;111.40;48.23;;;;;;;-3.24;74.10;99736.59;4443698;79;21147;-83
2021/01/10 18:35:29;;;;;;;120.90;49.47;;;;;;;-3.37;73.87;99733.90;4433945;80;21169;-83
2021/01/10 18:41:31;;;;;;;126.37;52.17;;;;;;;-3.38;73.91;99728.81;4438040;79;21117;-84
2021/01/10 18:47:32;;;;;;;147.37;58.20;;;;;;;-3.68;74.07;99722.89;4428583;79;21143;-83
2021/01/10 18:53:34;;;;;;;156.27;63.43;;;;;;;-3.68;74.43;99706.05;4419177;80;21146;-83
2021/01/10 18:59:36;;;;;;;156.63;64.80;;;;;;;-3.64;74.58;99703.91;4443171;80;21174;-83
2021/01/10 19:05:37;;;;;;;143.33;55.93;;;;;;;-3.76;74.76;99704.67;4445617;79;21165;-82
2021/01/10 19:11:39;;;;;;;158.73;62.77;;;;;;;-3.96;74.61;99700.62;4415257;80;21187;-82
2021/01/10 19:17:40;;;;;;;166.77;65.17;;;;;;;-3.97;75.03;99696.87;4422766;80;21197;-83
2021/01/10 19:23:44;;;;;;;138.00;56.03;;;;;;;-3.97;75.05;99699.02;4458175;79;21131;-83
2021/01/10 19:29:45;;;;;;;141.80;57.53;;;;;;;-4.05;75.44;99696.86;4421784;80;21486;-83
2021/01/10 19:35:47;;;;;;;134.53;56.80;;;;;;;-4.08;75.38;99688.55;4435412;79;21102;-84
2021/01/10 19:41:49;;;;;;;158.30;64.03;;;;;;;-4.07;76.16;99696.30;4433945;79;21183;-84
2021/01/10 19:47:51;;;;;;;163.90;65.57;;;;;;;-4.09;76.19;99690.44;4429082;79;21139;-83
2021/01/10 19:53:53;;;;;;;176.07;68.27;;;;;;;-4.04;75.93;99688.31;4433246;79;21147;-83
2021/01/10 19:59:55;;;;;;;199.53;71.57;;;;;;;-4.22;75.61;99696.79;4425399;79;21158;-83
2021/01/10 20:05:56;;;;;;;173.33;66.47;;;;;;;-4.50;75.63;99699.88;4433495;79;21727;-83
2021/01/10 20:11:58;;;;;;;163.63;66.47;;;;;;;-4.55;76.56;99701.19;4434324;79;21130;-83
2021/01/10 20:18:00;;;;;;;199.80;82.23;;;;;;;-4.58;76.88;99707.05;4433652;80;21267;-83
2021/01/10 20:24:02;;;;;;;225.57;85.27;;;;;;;-4.56;76.54;99698.25;4469502;79;21151;-82
2021/01/10 20:30:06;;;;;;;222.37;83.43;;;;;;;-4.62;76.31;99697.95;4418496;80;21165;-82
2021/01/10 20:36:08;;;;;;;223.60;87.03;;;;;;;-4.70;76.55;99691.77;4418679;79;21584;-83
2021/01/10 20:42:09;;;;;;;210.50;80.73;;;;;;;-4.74;76.79;99692.80;4436076;79;21631;-83
2021/01/10 20:48:11;;;;;;;173.07;68.00;;;;;;;-4.82;76.89;99689.28;4434622;79;21173;-83
2021/01/10 20:54:12;;;;;;;208.50;77.10;;;;;;;-4.77;77.06;99687.98;4431067;79;21122;-83
2021/01/10 21:00:15;;;;;;;193.80;79.73;;;;;;;-4.75;77.33;99690.39;4420793;79;21175;-83
2021/01/10 21:06:17;;;;;;;209.37;79.30;;;;;;;-4.79;77.03;99690.10;4396958;79;21341;-84
2021/01/10 21:12:37;;;;;;;216.70;80.73;;;;;;;-4.83;77.14;99679.67;4335918;80;21181;-83
2021/01/10 21:18:39;;;;;;;208.20;77.70;;;;;;;-5.01;76.72;99686.23;4342146;81;21181;-82
2021/01/10 21:24:40;;;;;;;217.17;83.90;;;;;;;-5.15;76.94;99693.08;4303213;81;21289;-83
2021/01/10 21:30:42;;;;;;;201.37;79.47;;;;;;;-5.16;77.07;99688.81;4333461;80;21160;-83
2021/01/10 21:36:43;;;;;;;202.97;79.97;;;;;;;-5.21;77.49;99690.63;4355177;81;21146;-83
2021/01/10 21:42:45;;;;;;;216.80;83.17;;;;;;;-5.26;77.23;99678.59;4351914;81;21663;-83
2021/01/10 21:48:47;;;;;;;201.83;78.73;;;;;;;-5.35;77.68;99681.44;4328566;81;21748;-83
2021/01/10 21:54:48;;;;;;;219.07;86.20;;;;;;;-5.35;77.38;99678.25;4337935;81;21137;-83
2021/01/10 22:00:51;;;;;;;202.23;83.37;;;;;;;-5.34;77.64;99678.52;4327000;81;21207;-83
2021/01/10 22:06:53;;;;;;;197.47;79.00;;;;;;;-5.35;77.98;99674.77;4404143;79;21769;-83
2021/01/10 22:12:56;;;;;;;194.17;80.40;;;;;;;-5.35;77.75;99674.77;4422011;79;21126;-82
2021/01/10 22:18:58;;;;;;;208.30;86.73;;;;;;;-5.48;77.94;99676.55;4441360;79;21179;-83
2021/01/10 22:24:59;;;;;;;202.57;84.40;;;;;;;-5.40;78.14;99684.06;4447263;79;21495;-83
2021/01/10 22:31:01;;;;;;;214.23;81.90;;;;;;;-5.33;78.97;99679.33;4428833;79;21179;-83
2021/01/10 22:37:03;;;;;;;237.40;96.33;;;;;;;-5.20;78.74;99694.92;4424496;79;21130;-82
2021/01/10 22:43:06;;;;;;;275.60;111.60;;;;;;;-5.08;79.04;99690.20;4428884;79;21113;-83
2021/01/10 22:49:08;;;;;;;255.27;103.23;;;;;;;-4.96;78.96;99693.47;4434762;79;21141;-83
2021/01/10 22:55:11;;;;;;;279.93;110.83;;;;;;;-4.92;79.13;99690.02;4444087;79;21138;-83
2021/01/10 23:01:13;;;;;;;263.07;101.60;;;;;;;-4.78;78.86;99680.23;4437049;79;21183;-82
2021/01/10 23:07:14;;;;;;;247.63;99.93;;;;;;;-4.97;78.29;99684.67;4442130;79;21153;-82
2021/01/10 23:13:16;;;;;;;286.80;116.13;;;;;;;-5.04;78.86;99684.08;4428010;79;21118;-83
2021/01/10 23:19:17;;;;;;;278.67;113.83;;;;;;;-5.17;78.85;99686.40;4432352;79;21140;-82
2021/01/10 23:25:21;;;;;;;255.07;100.27;;;;;;;-5.31;79.24;99690.56;4451796;79;21138;-82
2021/01/10 23:31:22;;;;;;;264.07;102.70;;;;;;;-5.33;78.79;99688.16;4437619;79;21584;-83
2021/01/10 23:37:24;;;;;;;248.70;97.93;;;;;;;-5.35;79.15;99690.27;4427807;79;21151;-83
2021/01/10 23:43:25;;;;;;;271.57;105.90;;;;;;;-5.27;80.00;99687.64;4460545;79;21133;-82
2021/01/10 23:49:27;;;;;;;281.73;107.13;;;;;;;-5.14;79.45;99680.03;4432315;79;21124;-82
2021/01/10 23:55:29;;;;;;;269.77;102.43;;;;;;;-5.15;79.44;99673.58;4435638;79;21214;-82
